KDLH

Duluth International Airport

Duluth, Minnesota, USA
METAR KDLH 191655Z 24004KT 10SM CLR 24/19 A2996 RMK AO2 SLP144 T02440189
Observed Flight Rules
Aug-19 @ 16:55 UTC (18 minutes ago) Visual Flight Rules
Wind Visibility Clouds
240° at 4 knots 10 miles
  • Clear skies
Temperatures Readings
Current 24°C / 75°F
Dewpoint 19°C / 66°F
Humidity 74%
Altimeter 29.96" Hg
Pressure 1014.4 hPa
Elevation 435
METAR KDLH 191655Z 24004KT 10SM CLR 24/19 A2996 RMK AO2 SLP144 T02440189
Observed Flight Rules
Aug-19 @ 16:55 UTC
(18 minutes ago)
VFR
Wind Visibility
240° at 4 knots 10 miles
Clouds
  • Clear skies
Temperature Dewpoint
24°C / 75°F 19°C / 66°F
Humidity Altimeter Pressure
74% 29.96" Hg 1014.4 hPa